sensor_id;sensor_type;location;lat;lon;timestamp;pressure;altitude;pressure_sealevel;temperature;humidity
33161;BME280;19522;45.656;11.302;2024-03-02T00:00:09;97506.84;;;9.58;100.00
33161;BME280;19522;45.656;11.302;2024-03-02T00:02:41;97502.25;;;9.58;100.00
33161;BME280;19522;45.656;11.302;2024-03-02T00:05:07;97480.16;;;9.55;100.00
33161;BME280;19522;45.656;11.302;2024-03-02T00:07:33;97502.25;;;9.58;100.00
33161;BME280;19522;45.656;11.302;2024-03-02T00:09:58;97494.75;;;9.60;100.00
33161;BME280;19522;45.656;11.302;2024-03-02T00:12:24;97503.34;;;9.71;100.00
33161;BME280;19522;45.656;11.302;2024-03-02T00:14:51;97497.25;;;9.48;100.00
33161;BME280;19522;45.656;11.302;2024-03-02T00:17:24;97508.25;;;9.33;100.00
33161;BME280;19522;45.656;11.302;2024-03-02T00:19:51;97509.75;;;9.49;100.00
33161;BME280;19522;45.656;11.302;2024-03-02T00:22:16;97513.28;;;9.50;100.00
33161;BME280;19522;45.656;11.302;2024-03-02T00:24:42;97513.06;;;9.38;100.00
33161;BME280;19522;45.656;11.302;2024-03-02T00:27:08;97504.22;;;9.16;100.00
33161;BME280;19522;45.656;11.302;2024-03-02T00:29:38;97505.94;;;9.30;100.00
33161;BME280;19522;45.656;11.302;2024-03-02T00:32:12;97519.78;;;9.62;100.00
33161;BME280;19522;45.656;11.302;2024-03-02T00:34:40;97517.00;;;9.35;100.00
33161;BME280;19522;45.656;11.302;2024-03-02T00:37:06;97514.34;;;9.42;100.00
33161;BME280;19522;45.656;11.302;2024-03-02T00:39:34;97515.97;;;9.37;100.00
33161;BME280;19522;45.656;11.302;2024-03-02T00:42:00;97522.91;;;9.59;100.00
33161;BME280;19522;45.656;11.302;2024-03-02T00:44:25;97508.66;;;9.30;100.00
33161;BME280;19522;45.656;11.302;2024-03-02T00:46:59;97513.88;;;9.39;100.00
33161;BME280;19522;45.656;11.302;2024-03-02T00:49:28;97516.31;;;9.13;100.00
33161;BME280;19522;45.656;11.302;2024-03-02T00:51:54;97504.69;;;9.26;100.00
33161;BME280;19522;45.656;11.302;2024-03-02T00:54:21;97516.16;;;9.35;100.00
33161;BME280;19522;45.656;11.302;2024-03-02T00:56:48;97517.66;;;9.38;100.00
33161;BME280;19522;45.656;11.302;2024-03-02T00:59:14;97519.72;;;9.35;100.00
33161;BME280;19522;45.656;11.302;2024-03-02T01:01:40;97516.03;;;9.57;100.00
33161;BME280;19522;45.656;11.302;2024-03-02T01:04:06;97520.75;;;9.34;100.00
33161;BME280;19522;45.656;11.302;2024-03-02T01:06:31;97523.88;;;9.31;100.00
33161;BME280;19522;45.656;11.302;2024-03-02T01:08:57;97516.19;;;9.42;100.00
33161;BME280;19522;45.656;11.302;2024-03-02T01:11:23;97521.66;;;9.62;100.00
33161;BME280;19522;45.656;11.302;2024-03-02T01:13:49;97511.00;;;9.47;100.00
33161;BME280;19522;45.656;11.302;2024-03-02T01:16:14;97518.72;;;9.50;100.00
33161;BME280;19522;45.656;11.302;2024-03-02T01:18:41;97524.63;;;9.74;100.00
33161;BME280;19522;45.656;11.302;2024-03-02T01:21:09;97487.22;;;9.42;100.00
33161;BME280;19522;45.656;11.302;2024-03-02T01:23:35;97504.97;;;9.51;100.00
33161;BME280;19522;45.656;11.302;2024-03-02T01:26:00;97517.03;;;9.49;100.00
33161;BME280;19522;45.656;11.302;2024-03-02T01:28:26;97514.34;;;9.42;100.00
33161;BME280;19522;45.656;11.302;2024-03-02T01:30:51;97514.13;;;9.44;100.00
33161;BME280;19522;45.656;11.302;2024-03-02T01:33:17;97508.66;;;9.30;100.00
33161;BME280;19522;45.656;11.302;2024-03-02T01:35:43;97503.63;;;9.20;100.00
33161;BME280;19522;45.656;11.302;2024-03-02T01:38:09;97506.38;;;9.27;100.00
33161;BME280;19522;45.656;11.302;2024-03-02T01:40:36;97499.09;;;9.34;100.00
33161;BME280;19522;45.656;11.302;2024-03-02T01:43:01;97483.44;;;9.30;100.00
33161;BME280;19522;45.656;11.302;2024-03-02T01:45:28;97515.56;;;9.46;100.00
33161;BME280;19522;45.656;11.302;2024-03-02T01:47:53;97521.44;;;9.57;100.00
33161;BME280;19522;45.656;11.302;2024-03-02T01:50:29;97512.88;;;9.53;100.00
33161;BME280;19522;45.656;11.302;2024-03-02T01:52:56;97518.53;;;9.58;100.00
33161;BME280;19522;45.656;11.302;2024-03-02T01:55:21;97497.19;;;9.35;100.00
33161;BME280;19522;45.656;11.302;2024-03-02T01:57:53;97520.19;;;9.46;100.00
33161;BME280;19522;45.656;11.302;2024-03-02T02:00:22;97478.41;;;9.27;100.00
33161;BME280;19522;45.656;11.302;2024-03-02T02:02:50;97513.28;;;9.50;100.00
33161;BME280;19522;45.656;11.302;2024-03-02T02:05:16;97502.53;;;9.97;100.00
33161;BME280;19522;45.656;11.302;2024-03-02T02:07:42;97495.81;;;9.66;100.00
33161;BME280;19522;45.656;11.302;2024-03-02T02:10:09;97489.75;;;9.50;100.00
33161;BME280;19522;45.656;11.302;2024-03-02T02:12:35;97513.94;;;9.52;100.00
33161;BME280;19522;45.656;11.302;2024-03-02T02:15:00;97507.88;;;9.50;100.00
33161;BME280;19522;45.656;11.302;2024-03-02T02:17:26;97511.63;;;9.42;100.00
33161;BME280;19522;45.656;11.302;2024-03-02T02:19:51;97515.81;;;9.51;100.00
33161;BME280;19522;45.656;11.302;2024-03-02T02:22:17;97513.88;;;9.39;100.00
33161;BME280;19522;45.656;11.302;2024-03-02T02:24:43;97506.81;;;9.38;100.00
33161;BME280;19522;45.656;11.302;2024-03-02T02:27:09;97500.06;;;9.13;100.00
33161;BME280;19522;45.656;11.302;2024-03-02T02:29:38;97504.88;;;9.25;100.00
33161;BME280;19522;45.656;11.302;2024-03-02T02:32:03;97499.25;;;9.19;100.00
33161;BME280;19522;45.656;11.302;2024-03-02T02:34:29;97450.41;;;8.93;100.00
33161;BME280;19522;45.656;11.302;2024-03-02T02:36:54;97467.91;;;9.03;100.00
33161;BME280;19522;45.656;11.302;2024-03-02T02:39:21;97475.03;;;9.11;100.00
33161;BME280;19522;45.656;11.302;2024-03-02T02:41:50;97493.25;;;9.31;100.00
33161;BME280;19522;45.656;11.302;2024-03-02T02:44:15;97479.69;;;9.31;100.00
33161;BME280;19522;45.656;11.302;2024-03-02T02:46:41;97483.88;;;9.33;100.00
33161;BME280;19522;45.656;11.302;2024-03-02T02:49:06;97479.66;;;9.24;100.00
33161;BME280;19522;45.656;11.302;2024-03-02T02:51:32;97483.47;;;9.50;100.00
33161;BME280;19522;45.656;11.302;2024-03-02T02:53:58;97467.59;;;9.33;100.00
33161;BME280;19522;45.656;11.302;2024-03-02T02:56:23;97461.06;;;9.08;100.00
33161;BME280;19522;45.656;11.302;2024-03-02T02:58:49;97485.88;;;9.11;100.00
33161;BME280;19522;45.656;11.302;2024-03-02T03:01:17;97482.13;;;9.19;100.00
33161;BME280;19522;45.656;11.302;2024-03-02T03:03:45;97486.31;;;9.28;100.00
33161;BME280;19522;45.656;11.302;2024-03-02T03:06:12;97484.13;;;9.52;100.00
33161;BME280;19522;45.656;11.302;2024-03-02T03:08:37;97484.16;;;9.65;100.00
33161;BME280;19522;45.656;11.302;2024-03-02T03:11:04;97477.66;;;9.73;100.00
33161;BME280;19522;45.656;11.302;2024-03-02T03:13:31;97482.44;;;9.51;100.00
33161;BME280;19522;45.656;11.302;2024-03-02T03:15:56;97488.00;;;9.29;100.00
33161;BME280;19522;45.656;11.302;2024-03-02T03:18:22;97481.72;;;9.09;100.00
33161;BME280;19522;45.656;11.302;2024-03-02T03:20:47;97415.16;;;8.86;100.00
33161;BME280;19522;45.656;11.302;2024-03-02T03:23:13;97478.91;;;9.50;100.00
33161;BME280;19522;45.656;11.302;2024-03-02T03:25:41;97486.00;;;9.58;100.00
33161;BME280;19522;45.656;11.302;2024-03-02T03:28:07;97466.69;;;9.13;100.00
33161;BME280;19522;45.656;11.302;2024-03-02T03:30:36;97483.47;;;9.37;100.00
33161;BME280;19522;45.656;11.302;2024-03-02T03:33:02;97482.97;;;9.19;100.00
33161;BME280;19522;45.656;11.302;2024-03-02T03:35:27;97483.66;;;8.80;100.00
33161;BME280;19522;45.656;11.302;2024-03-02T03:37:53;97490.25;;;8.70;100.00
33161;BME280;19522;45.656;11.302;2024-03-02T03:40:18;97488.13;;;8.66;100.00
33161;BME280;19522;45.656;11.302;2024-03-02T03:42:44;97485.78;;;8.84;100.00
33161;BME280;19522;45.656;11.302;2024-03-02T03:45:10;97478.25;;;8.86;100.00
33161;BME280;19522;45.656;11.302;2024-03-02T03:47:35;97486.19;;;8.95;100.00
33161;BME280;19522;45.656;11.302;2024-03-02T03:50:01;97488.13;;;9.01;100.00
33161;BME280;19522;45.656;11.302;2024-03-02T03:52:29;97492.66;;;8.87;100.00
33161;BME280;19522;45.656;11.302;2024-03-02T03:54:55;97476.88;;;8.97;100.00
33161;BME280;19522;45.656;11.302;2024-03-02T03:57:20;97481.63;;;8.95;100.00
33161;BME280;19522;45.656;11.302;2024-03-02T03:59:46;97448.97;;;8.55;100.00
33161;BME280;19522;45.656;11.302;2024-03-02T04:02:12;97500.41;;;9.03;100.00
33161;BME280;19522;45.656;11.302;2024-03-02T04:04:38;97509.53;;;8.96;100.00
33161;BME280;19522;45.656;11.302;2024-03-02T04:07:03;97516.75;;;9.24;100.00
33161;BME280;19522;45.656;11.302;2024-03-02T04:09:29;97514.22;;;9.09;100.00
33161;BME280;19522;45.656;11.302;2024-03-02T04:11:57;97515.72;;;8.83;100.00
33161;BME280;19522;45.656;11.302;2024-03-02T04:14:26;97508.34;;;9.05;100.00
33161;BME280;19522;45.656;11.302;2024-03-02T04:16:54;97481.31;;;9.18;100.00
33161;BME280;19522;45.656;11.302;2024-03-02T04:19:20;97507.97;;;9.15;100.00
33161;BME280;19522;45.656;11.302;2024-03-02T04:21:46;97510.91;;;9.13;100.00
33161;BME280;19522;45.656;11.302;2024-03-02T04:24:11;97509.06;;;9.34;100.00
33161;BME280;19522;45.656;11.302;2024-03-02T04:26:37;97525.03;;;9.15;100.00
33161;BME280;19522;45.656;11.302;2024-03-02T04:29:02;97461.28;;;8.64;100.00
33161;BME280;19522;45.656;11.302;2024-03-02T04:31:28;97525.94;;;9.23;100.00
33161;BME280;19522;45.656;11.302;2024-03-02T04:33:54;97521.00;;;8.98;100.00
33161;BME280;19522;45.656;11.302;2024-03-02T04:36:19;97525.13;;;8.87;100.00
33161;BME280;19522;45.656;11.302;2024-03-02T04:38:45;97528.75;;;9.01;100.00
33161;BME280;19522;45.656;11.302;2024-03-02T04:41:10;97521.72;;;9.13;100.00
33161;BME280;19522;45.656;11.302;2024-03-02T04:43:36;97511.03;;;8.98;100.00
33161;BME280;19522;45.656;11.302;2024-03-02T04:46:01;97541.34;;;9.22;100.00
33161;BME280;19522;45.656;11.302;2024-03-02T04:48:27;97535.97;;;8.87;100.00
33161;BME280;19522;45.656;11.302;2024-03-02T04:50:52;97520.59;;;8.59;100.00
33161;BME280;19522;45.656;11.302;2024-03-02T04:53:18;97537.28;;;8.63;100.00
33161;BME280;19522;45.656;11.302;2024-03-02T04:55:43;97535.66;;;8.68;100.00
33161;BME280;19522;45.656;11.302;2024-03-02T04:58:09;97534.63;;;9.11;100.00
33161;BME280;19522;45.656;11.302;2024-03-02T05:00:35;97504.50;;;8.86;100.00
33161;BME280;19522;45.656;11.302;2024-03-02T05:03:01;97531.75;;;8.78;100.00
33161;BME280;19522;45.656;11.302;2024-03-02T05:05:26;97534.28;;;8.86;100.00
33161;BME280;19522;45.656;11.302;2024-03-02T05:07:52;97534.03;;;8.81;100.00
33161;BME280;19522;45.656;11.302;2024-03-02T05:10:18;97519.09;;;8.56;100.00
33161;BME280;19522;45.656;11.302;2024-03-02T05:12:43;97519.41;;;8.68;100.00
33161;BME280;19522;45.656;11.302;2024-03-02T05:15:13;97544.03;;;8.80;100.00
33161;BME280;19522;45.656;11.302;2024-03-02T05:17:40;97530.66;;;8.72;100.00
33161;BME280;19522;45.656;11.302;2024-03-02T05:20:06;97547.81;;;8.86;100.00
33161;BME280;19522;45.656;11.302;2024-03-02T05:22:38;97532.94;;;8.68;100.00
33161;BME280;19522;45.656;11.302;2024-03-02T05:25:05;97557.53;;;8.73;100.00
33161;BME280;19522;45.656;11.302;2024-03-02T05:27:31;97560.84;;;8.69;100.00
33161;BME280;19522;45.656;11.302;2024-03-02T05:29:58;97536.19;;;8.57;100.00
33161;BME280;19522;45.656;11.302;2024-03-02T05:32:23;97552.38;;;8.79;100.00
33161;BME280;19522;45.656;11.302;2024-03-02T05:34:49;97566.94;;;8.78;100.00
33161;BME280;19522;45.656;11.302;2024-03-02T05:37:16;97566.63;;;8.94;100.00
33161;BME280;19522;45.656;11.302;2024-03-02T05:39:41;97537.78;;;9.15;100.00
33161;BME280;19522;45.656;11.302;2024-03-02T05:42:08;97570.03;;;9.10;100.00
33161;BME280;19522;45.656;11.302;2024-03-02T05:44:35;97536.19;;;8.92;100.00
33161;BME280;19522;45.656;11.302;2024-03-02T05:47:00;97566.34;;;8.82;100.00
33161;BME280;19522;45.656;11.302;2024-03-02T05:49:26;97573.38;;;9.12;100.00
33161;BME280;19522;45.656;11.302;2024-03-02T05:51:51;97559.19;;;9.03;100.00
33161;BME280;19522;45.656;11.302;2024-03-02T05:54:16;97579.59;;;9.06;100.00
33161;BME280;19522;45.656;11.302;2024-03-02T05:56:42;97576.97;;;8.84;100.00
33161;BME280;19522;45.656;11.302;2024-03-02T05:59:07;97579.25;;;8.80;100.00
33161;BME280;19522;45.656;11.302;2024-03-02T06:01:47;97586.06;;;8.69;100.00
33161;BME280;19522;45.656;11.302;2024-03-02T06:04:14;97547.66;;;8.59;100.00
33161;BME280;19522;45.656;11.302;2024-03-02T06:06:40;97573.19;;;9.13;100.00
33161;BME280;19522;45.656;11.302;2024-03-02T06:09:06;97573.03;;;8.86;100.00
33161;BME280;19522;45.656;11.302;2024-03-02T06:11:40;97586.06;;;8.69;100.00
33161;BME280;19522;45.656;11.302;2024-03-02T06:14:07;97586.88;;;8.98;100.00
33161;BME280;19522;45.656;11.302;2024-03-02T06:16:33;97575.06;;;8.78;100.00
33161;BME280;19522;45.656;11.302;2024-03-02T06:19:00;97574.97;;;8.64;100.00
33161;BME280;19522;45.656;11.302;2024-03-02T06:21:26;97584.22;;;8.77;100.00
33161;BME280;19522;45.656;11.302;2024-03-02T06:23:51;97586.97;;;8.83;100.00
33161;BME280;19522;45.656;11.302;2024-03-02T06:26:17;97576.50;;;9.09;100.00
33161;BME280;19522;45.656;11.302;2024-03-02T06:28:44;97588.06;;;9.31;100.00
33161;BME280;19522;45.656;11.302;2024-03-02T06:31:09;97596.19;;;8.89;100.00
33161;BME280;19522;45.656;11.302;2024-03-02T06:33:35;97596.34;;;8.87;100.00
33161;BME280;19522;45.656;11.302;2024-03-02T06:36:00;97590.50;;;8.84;100.00
33161;BME280;19522;45.656;11.302;2024-03-02T06:38:26;97594.06;;;8.84;100.00
33161;BME280;19522;45.656;11.302;2024-03-02T06:40:51;97582.78;;;9.16;100.00
33161;BME280;19522;45.656;11.302;2024-03-02T06:43:21;97600.25;;;9.07;100.00
33161;BME280;19522;45.656;11.302;2024-03-02T06:45:50;97598.25;;;8.87;100.00
33161;BME280;19522;45.656;11.302;2024-03-02T06:48:16;97605.28;;;8.81;100.00
33161;BME280;19522;45.656;11.302;2024-03-02T06:50:46;97604.78;;;8.71;100.00
33161;BME280;19522;45.656;11.302;2024-03-02T06:53:12;97602.97;;;8.78;100.00
33161;BME280;19522;45.656;11.302;2024-03-02T06:55:40;97608.84;;;9.17;100.00
33161;BME280;19522;45.656;11.302;2024-03-02T06:58:05;97611.94;;;8.85;100.00
33161;BME280;19522;45.656;11.302;2024-03-02T07:00:31;97609.06;;;8.87;100.00
33161;BME280;19522;45.656;11.302;2024-03-02T07:02:57;97609.34;;;8.99;100.00
33161;BME280;19522;45.656;11.302;2024-03-02T07:05:23;97613.13;;;9.04;100.00
33161;BME280;19522;45.656;11.302;2024-03-02T07:07:49;97612.66;;;8.94;100.00
33161;BME280;19522;45.656;11.302;2024-03-02T07:10:14;97610.50;;;8.83;100.00
33161;BME280;19522;45.656;11.302;2024-03-02T07:12:40;97606.75;;;8.84;100.00
33161;BME280;19522;45.656;11.302;2024-03-02T07:15:06;97618.28;;;8.93;100.00
33161;BME280;19522;45.656;11.302;2024-03-02T07:17:32;97626.47;;;9.48;100.00
33161;BME280;19522;45.656;11.302;2024-03-02T07:19:58;97622.78;;;9.56;100.00
33161;BME280;19522;45.656;11.302;2024-03-02T07:22:24;97631.75;;;9.21;100.00
33161;BME280;19522;45.656;11.302;2024-03-02T07:24:49;97637.31;;;9.06;100.00
33161;BME280;19522;45.656;11.302;2024-03-02T07:27:16;97638.53;;;9.39;100.00
33161;BME280;19522;45.656;11.302;2024-03-02T07:29:42;97638.91;;;9.29;100.00
33161;BME280;19522;45.656;11.302;2024-03-02T07:32:09;97643.03;;;9.18;100.00
33161;BME280;19522;45.656;11.302;2024-03-02T07:34:35;97643.56;;;9.07;100.00
33161;BME280;19522;45.656;11.302;2024-03-02T07:37:01;97655.81;;;9.02;100.00
33161;BME280;19522;45.656;11.302;2024-03-02T07:39:30;97634.56;;;8.71;100.00
33161;BME280;19522;45.656;11.302;2024-03-02T07:41:59;97642.53;;;9.08;100.00
33161;BME280;19522;45.656;11.302;2024-03-02T07:44:25;97647.97;;;9.14;100.00
33161;BME280;19522;45.656;11.302;2024-03-02T07:46:50;97595.69;;;8.79;100.00
33161;BME280;19522;45.656;11.302;2024-03-02T07:49:16;97641.81;;;9.27;100.00
33161;BME280;19522;45.656;11.302;2024-03-02T07:51:42;97658.09;;;9.34;100.00
33161;BME280;19522;45.656;11.302;2024-03-02T07:54:08;97655.16;;;9.29;100.00
33161;BME280;19522;45.656;11.302;2024-03-02T07:56:34;97655.69;;;9.46;100.00
33161;BME280;19522;45.656;11.302;2024-03-02T07:59:01;97637.59;;;9.18;100.00
33161;BME280;19522;45.656;11.302;2024-03-02T08:01:28;97663.72;;;9.32;100.00
33161;BME280;19522;45.656;11.302;2024-03-02T08:03:56;97670.19;;;9.31;100.00
33161;BME280;19522;45.656;11.302;2024-03-02T08:06:26;97658.56;;;9.38;100.00
33161;BME280;19522;45.656;11.302;2024-03-02T08:08:59;97656.06;;;9.43;100.00
33161;BME280;19522;45.656;11.302;2024-03-02T08:11:26;97645.97;;;9.72;100.00
33161;BME280;19522;45.656;11.302;2024-03-02T08:13:52;97663.59;;;9.96;100.00
33161;BME280;19522;45.656;11.302;2024-03-02T08:16:22;97667.88;;;9.70;100.00
33161;BME280;19522;45.656;11.302;2024-03-02T08:18:49;97671.81;;;9.61;100.00
33161;BME280;19522;45.656;11.302;2024-03-02T08:21:15;97670.75;;;9.62;100.00
33161;BME280;19522;45.656;11.302;2024-03-02T08:23:42;97671.16;;;9.59;100.00
33161;BME280;19522;45.656;11.302;2024-03-02T08:26:08;97666.75;;;9.51;100.00
33161;BME280;19522;45.656;11.302;2024-03-02T08:28:34;97664.03;;;9.51;100.00
33161;BME280;19522;45.656;11.302;2024-03-02T08:31:00;97675.81;;;9.72;100.00
33161;BME280;19522;45.656;11.302;2024-03-02T08:33:25;97672.47;;;9.70;100.00
33161;BME280;19522;45.656;11.302;2024-03-02T08:35:51;97660.28;;;9.52;100.00
33161;BME280;19522;45.656;11.302;2024-03-02T08:38:17;97681.66;;;9.75;100.00
33161;BME280;19522;45.656;11.302;2024-03-02T08:40:42;97676.09;;;9.90;100.00
33161;BME280;19522;45.656;11.302;2024-03-02T08:43:09;97686.53;;;9.93;100.00
33161;BME280;19522;45.656;11.302;2024-03-02T08:45:34;97687.16;;;9.95;100.00
33161;BME280;19522;45.656;11.302;2024-03-02T08:48:00;97679.44;;;9.92;100.00
33161;BME280;19522;45.656;11.302;2024-03-02T08:50:25;97672.88;;;9.73;100.00
33161;BME280;19522;45.656;11.302;2024-03-02T08:52:51;97680.09;;;9.94;100.00
33161;BME280;19522;45.656;11.302;2024-03-02T08:55:16;97690.38;;;10.19;100.00
33161;BME280;19522;45.656;11.302;2024-03-02T08:57:44;97682.22;;;10.19;100.00
33161;BME280;19522;45.656;11.302;2024-03-02T09:00:10;97687.63;;;10.12;100.00
33161;BME280;19522;45.656;11.302;2024-03-02T09:02:37;97684.72;;;10.21;100.00
33161;BME280;19522;45.656;11.302;2024-03-02T09:05:03;97681.91;;;10.49;100.00
33161;BME280;19522;45.656;11.302;2024-03-02T09:07:30;97685.59;;;10.21;100.00
33161;BME280;19522;45.656;11.302;2024-03-02T09:09:56;97682.81;;;10.08;100.00
33161;BME280;19522;45.656;11.302;2024-03-02T09:12:22;97687.44;;;10.21;100.00
33161;BME280;19522;45.656;11.302;2024-03-02T09:14:48;97690.78;;;10.16;100.00
33161;BME280;19522;45.656;11.302;2024-03-02T09:17:19;97688.72;;;10.25;100.00
33161;BME280;19522;45.656;11.302;2024-03-02T09:19:48;97696.47;;;10.28;100.00
33161;BME280;19522;45.656;11.302;2024-03-02T09:22:16;97684.94;;;10.19;100.00
33161;BME280;19522;45.656;11.302;2024-03-02T09:24:44;97701.31;;;10.46;100.00
33161;BME280;19522;45.656;11.302;2024-03-02T09:27:13;97685.78;;;10.20;100.00
33161;BME280;19522;45.656;11.302;2024-03-02T09:29:38;97689.75;;;10.24;100.00
33161;BME280;19522;45.656;11.302;2024-03-02T09:32:05;97677.41;;;10.14;100.00
33161;BME280;19522;45.656;11.302;2024-03-02T09:34:31;97702.69;;;10.22;100.00
33161;BME280;19522;45.656;11.302;2024-03-02T09:36:57;97683.69;;;10.08;100.00
33161;BME280;19522;45.656;11.302;2024-03-02T09:39:23;97697.38;;;10.55;100.00
33161;BME280;19522;45.656;11.302;2024-03-02T09:41:50;97640.97;;;10.37;100.00
33161;BME280;19522;45.656;11.302;2024-03-02T09:44:16;97700.69;;;10.44;100.00
33161;BME280;19522;45.656;11.302;2024-03-02T09:46:42;97672.88;;;10.28;100.00
33161;BME280;19522;45.656;11.302;2024-03-02T09:49:10;97694.03;;;10.47;100.00
33161;BME280;19522;45.656;11.302;2024-03-02T09:51:37;97675.16;;;10.25;100.00
33161;BME280;19522;45.656;11.302;2024-03-02T09:54:02;97700.06;;;10.42;100.00
33161;BME280;19522;45.656;11.302;2024-03-02T09:56:28;97703.22;;;10.46;100.00
33161;BME280;19522;45.656;11.302;2024-03-02T09:58:54;97699.19;;;10.28;100.00
33161;BME280;19522;45.656;11.302;2024-03-02T10:01:19;97670.22;;;10.42;100.00
33161;BME280;19522;45.656;11.302;2024-03-02T10:03:45;97706.16;;;10.64;100.00
33161;BME280;19522;45.656;11.302;2024-03-02T10:06:21;97708.25;;;10.69;100.00
33161;BME280;19522;45.656;11.302;2024-03-02T10:08:48;97706.97;;;10.51;100.00
33161;BME280;19522;45.656;11.302;2024-03-02T10:11:33;97706.84;;;10.11;100.00
33161;BME280;19522;45.656;11.302;2024-03-02T10:14:12;97701.44;;;10.18;100.00
33161;BME280;19522;45.656;11.302;2024-03-02T10:16:42;97708.53;;;10.25;100.00
33161;BME280;19522;45.656;11.302;2024-03-02T10:19:23;97712.09;;;10.19;100.00
33161;BME280;19522;45.656;11.302;2024-03-02T10:21:53;97709.19;;;10.34;100.00
33161;BME280;19522;45.656;11.302;2024-03-02T10:24:20;97720.13;;;10.41;100.00
33161;BME280;19522;45.656;11.302;2024-03-02T10:26:47;97725.28;;;10.36;100.00
33161;BME280;19522;45.656;11.302;2024-03-02T10:29:12;97716.16;;;10.50;100.00
33161;BME280;19522;45.656;11.302;2024-03-02T10:31:42;97715.97;;;10.58;100.00
33161;BME280;19522;45.656;11.302;2024-03-02T10:34:09;97722.25;;;10.72;100.00
33161;BME280;19522;45.656;11.302;2024-03-02T10:36:36;97725.13;;;10.51;100.00
33161;BME280;19522;45.656;11.302;2024-03-02T10:39:03;97721.16;;;10.53;100.00
33161;BME280;19522;45.656;11.302;2024-03-02T10:41:34;97717.00;;;10.57;100.00
33161;BME280;19522;45.656;11.302;2024-03-02T10:44:06;97717.78;;;10.38;100.00
33161;BME280;19522;45.656;11.302;2024-03-02T10:46:33;97714.88;;;10.39;100.00
33161;BME280;19522;45.656;11.302;2024-03-02T10:49:01;97722.22;;;10.46;100.00
33161;BME280;19522;45.656;11.302;2024-03-02T10:51:28;97711.50;;;10.31;100.00
33161;BME280;19522;45.656;11.302;2024-03-02T10:53:58;97715.53;;;10.48;100.00
33161;BME280;19522;45.656;11.302;2024-03-02T10:56:30;97707.81;;;10.58;100.00
33161;BME280;19522;45.656;11.302;2024-03-02T10:59:24;97706.38;;;10.76;100.00
33161;BME280;19522;45.656;11.302;2024-03-02T11:01:55;97700.72;;;10.84;100.00
33161;BME280;19522;45.656;11.302;2024-03-02T11:04:24;97706.81;;;10.86;100.00
33161;BME280;19522;45.656;11.302;2024-03-02T11:06:51;97681.53;;;10.79;100.00
33161;BME280;19522;45.656;11.302;2024-03-02T11:09:22;97702.41;;;10.85;100.00
33161;BME280;19522;45.656;11.302;2024-03-02T11:12:02;97690.72;;;10.85;100.00
33161;BME280;19522;45.656;11.302;2024-03-02T11:14:30;97694.06;;;11.00;100.00
33161;BME280;19522;45.656;11.302;2024-03-02T11:16:58;97684.22;;;11.06;100.00
33161;BME280;19522;45.656;11.302;2024-03-02T11:19:24;97678.72;;;11.46;100.00
33161;BME280;19522;45.656;11.302;2024-03-02T11:21:50;97692.09;;;11.48;100.00
33161;BME280;19522;45.656;11.302;2024-03-02T11:26:51;97698.63;;;11.13;100.00
33161;BME280;19522;45.656;11.302;2024-03-02T11:32:04;97698.22;;;11.16;100.00
33161;BME280;19522;45.656;11.302;2024-03-02T11:34:39;97682.75;;;11.17;100.00
33161;BME280;19522;45.656;11.302;2024-03-02T11:37:10;97688.59;;;11.27;100.00
33161;BME280;19522;45.656;11.302;2024-03-02T11:39:38;97672.69;;;11.31;100.00
33161;BME280;19522;45.656;11.302;2024-03-02T11:42:08;97689.66;;;11.19;100.00
33161;BME280;19522;45.656;11.302;2024-03-02T11:44:38;97682.75;;;11.17;100.00
33161;BME280;19522;45.656;11.302;2024-03-02T11:47:08;97677.34;;;10.97;100.00
33161;BME280;19522;45.656;11.302;2024-03-02T11:49:36;97681.09;;;10.89;100.00
33161;BME280;19522;45.656;11.302;2024-03-02T11:52:05;97653.53;;;10.99;100.00
33161;BME280;19522;45.656;11.302;2024-03-02T11:54:32;97672.50;;;11.12;100.00
33161;BME280;19522;45.656;11.302;2024-03-02T11:57:01;97652.66;;;10.98;100.00
33161;BME280;19522;45.656;11.302;2024-03-02T11:59:28;97651.00;;;10.97;100.00
33161;BME280;19522;45.656;11.302;2024-03-02T12:01:54;97667.94;;;10.99;100.00
33161;BME280;19522;45.656;11.302;2024-03-02T12:04:21;97663.13;;;11.08;100.00
33161;BME280;19522;45.656;11.302;2024-03-02T12:06:48;97654.34;;;11.19;100.00
33161;BME280;19522;45.656;11.302;2024-03-02T12:09:20;97665.59;;;11.30;100.00
33161;BME280;19522;45.656;11.302;2024-03-02T12:14:30;97644.44;;;11.45;100.00
33161;BME280;19522;45.656;11.302;2024-03-02T12:16:56;97653.63;;;11.44;100.00
33161;BME280;19522;45.656;11.302;2024-03-02T12:19:26;97655.88;;;11.61;100.00
33161;BME280;19522;45.656;11.302;2024-03-02T12:21:53;97656.31;;;11.58;100.00
33161;BME280;19522;45.656;11.302;2024-03-02T12:24:21;97626.69;;;11.43;100.00
33161;BME280;19522;45.656;11.302;2024-03-02T12:26:47;97656.19;;;11.26;100.00
33161;BME280;19522;45.656;11.302;2024-03-02T12:29:14;97650.94;;;11.37;100.00
33161;BME280;19522;45.656;11.302;2024-03-02T12:31:41;97648.03;;;11.39;100.00
33161;BME280;19522;45.656;11.302;2024-03-02T12:34:07;97650.91;;;11.44;100.00
33161;BME280;19522;45.656;11.302;2024-03-02T12:36:39;97629.16;;;11.51;100.00
33161;BME280;19522;45.656;11.302;2024-03-02T12:39:07;97641.69;;;11.59;100.00
33161;BME280;19522;45.656;11.302;2024-03-02T12:41:36;97641.22;;;11.68;100.00
33161;BME280;19522;45.656;11.302;2024-03-02T12:44:02;97623.44;;;11.66;100.00
33161;BME280;19522;45.656;11.302;2024-03-02T12:46:28;97642.03;;;11.69;100.00
33161;BME280;19522;45.656;11.302;2024-03-02T12:48:53;97636.81;;;11.67;100.00
33161;BME280;19522;45.656;11.302;2024-03-02T12:51:19;97634.53;;;11.64;100.00
33161;BME280;19522;45.656;11.302;2024-03-02T12:53:45;97635.78;;;11.68;100.00